| time (UTC) | temp F | wind direction | speed MPH | gust MPH | rain 1hr in | rain 24hr in | rain mn in | humidity % | barometer mb |
| 20260831230311 | 63 | 277 | 5.0 | 8.0 | 0.00 | 0.00 | 0.00 | 86 | 14.4 |
| 20260831225311 | 63 | 241 | 7.0 | 11.0 | 0.00 | 0.00 | 0.00 | 87 | 14.4 |
| 20260831224310 | 63 | 279 | 2.0 | 6.0 | 0.00 | 0.00 | 0.00 | 87 | 14.4 |
| 20260831223310 | 63 | 233 | 0.0 | 2.0 | 0.00 | 0.00 | 0.00 | 85 | 14.5 |
| 20260831222310 | 63 | 254 | 1.0 | 3.0 | 0.00 | 0.00 | 0.00 | 85 | 14.4 |
| 20260831220310 | 63 | 330 | 0.0 | 0.0 | 0.00 | 0.00 | 0.00 | 84 | 14.4 |
| 20260831215311 | 63 | 345 | 0.0 | 4.0 | 0.00 | 0.00 | 0.00 | 84 | 14.3 |
| 20260831212311 | 63 | 251 | 0.0 | 4.0 | 0.00 | 0.00 | 0.00 | 82 | 14.1 |
| 20260831211311 | 63 | 229 | 0.0 | 7.0 | 0.00 | 0.00 | 0.00 | 82 | 13.8 |
| 20260831205310 | 63 | 261 | 2.0 | 10.0 | 0.00 | 0.00 | 0.00 | 81 | 13.8 |
| 20260831204310 | 63 | 258 | 4.0 | 11.0 | 0.00 | 0.00 | 0.00 | 80 | 13.8 |
| 20260831202310 | 63 | 281 | 5.0 | 9.0 | 0.00 | 0.00 | 0.00 | 79 | 13.7 |
| 20260831200310 | 63 | 279 | 3.0 | 9.0 | 0.00 | 0.00 | 0.00 | 78 | 13.6 |
| 20260831195311 | 63 | 286 | 4.0 | 10.0 | 0.00 | 0.00 | 0.00 | 78 | 13.4 |
| 20260831194311 | 63 | 274 | 6.0 | 11.0 | 0.00 | 0.00 | 0.00 | 78 | 13.2 |
| 20260831193311 | 63 | 292 | 2.0 | 10.0 | 0.00 | 0.00 | 0.00 | 79 | 13.2 |
| 20260831192311 | 63 | 275 | 4.0 | 8.0 | 0.00 | 0.00 | 0.00 | 79 | 13.1 |
| 20260831191310 | 63 | 264 | 3.0 | 7.0 | 0.00 | 0.00 | 0.00 | 78 | 13.1 |
| 20260831185311 | 64 | 278 | 1.0 | 4.0 | 0.00 | 0.00 | 0.00 | 77 | 12.8 |
| 20260831183311 | 65 | 267 | 3.0 | 8.0 | 0.00 | 0.00 | 0.00 | 75 | 12.5 |
| 20260831182310 | 65 | 265 | 4.0 | 8.0 | 0.00 | 0.00 | 0.00 | 75 | 12.3 |
| 20260831180310 | 66 | 297 | 5.0 | 14.0 | 0.00 | 0.00 | 0.00 | 73 | 12.1 |
| 20260831174310 | 67 | 269 | 7.0 | 14.0 | 0.00 | 0.00 | 0.00 | 72 | 11.7 |
| 20260831173310 | 67 | 308 | 4.0 | 12.0 | 0.00 | 0.00 | 0.00 | 71 | 11.6 |
| 20260831172311 | 67 | 301 | 6.0 | 17.0 | 0.00 | 0.00 | 0.00 | 70 | 11.3 |
| 20260831171310 | 68 | 288 | 7.0 | 15.0 | 0.00 | 0.00 | 0.00 | 69 | 11.0 |
| 20260831170311 | 68 | 303 | 8.0 | 22.0 | 0.00 | 0.00 | 0.00 | 67 | 10.8 |
| 20260831165310 | 69 | 336 | 9.0 | 17.0 | 0.00 | 0.00 | 0.00 | 67 | 10.7 |
| 20260831164311 | 69 | 273 | 6.0 | 18.0 | 0.00 | 0.00 | 0.00 | 66 | 10.7 |
| 20260831162310 | 70 | 294 | 6.0 | 17.0 | 0.00 | 0.00 | 0.00 | 65 | 10.5 |
| 20260831161310 | 69 | 271 | 10.0 | 18.0 | 0.00 | 0.00 | 0.00 | 65 | 10.5 |
| 20260831160311 | 68 | 300 | 5.0 | 14.0 | 0.00 | 0.00 | 0.00 | 68 | 10.3 |
| 20260831155310 | 69 | 306 | 8.0 | 16.0 | 0.00 | 0.00 | 0.00 | 67 | 10.4 |
| 20260831154310 | 68 | 328 | 9.0 | 18.0 | 0.00 | 0.00 | 0.00 | 71 | 10.3 |
| 20260831153311 | 67 | 283 | 6.0 | 11.0 | 0.00 | 0.00 | 0.00 | 73 | 10.1 |
| 20260831151310 | 67 | 334 | 6.0 | 13.0 | 0.00 | 0.00 | 0.00 | 73 | 10.1 |
| 20260831150310 | 67 | 5 | 6.0 | 22.0 | 0.00 | 0.00 | 0.00 | 72 | 10.0 |
| 20260831145311 | 69 | 286 | 13.0 | 24.0 | 0.00 | 0.00 | 0.00 | 65 | 9.9 |
| 20260831144311 | 69 | 294 | 8.0 | 18.0 | 0.00 | 0.00 | 0.00 | 65 | 9.7 |
| 20260831142311 | 69 | 339 | 13.0 | 22.0 | 0.00 | 0.00 | 0.00 | 64 | 9.3 |
| 20260831141311 | 68 | 344 | 10.0 | 26.0 | 0.00 | 0.00 | 0.00 | 67 | 9.1 |
| 20260831140310 | 67 | 306 | 12.0 | 21.0 | 0.00 | 0.00 | 0.00 | 69 | 9.1 |
| 20260831135311 | 67 | 288 | 7.0 | 19.0 | 0.00 | 0.00 | 0.00 | 68 | 9.0 |
| 20260831134311 | 69 | 268 | 8.0 | 23.0 | 0.00 | 0.00 | 0.00 | 64 | 8.7 |
| 20260831133311 | 69 | 331 | 10.0 | 22.0 | 0.00 | 0.00 | 0.00 | 65 | 8.7 |
| 20260831132311 | 69 | 277 | 14.0 | 21.0 | 0.00 | 0.00 | 0.00 | 65 | 8.3 |
| 20260831131311 | 68 | 333 | 10.0 | 17.0 | 0.00 | 0.00 | 0.00 | 68 | 8.3 |
| 20260831130310 | 69 | 5 | 4.0 | 12.0 | 0.00 | 0.00 | 0.00 | 69 | 8.3 |
| 20260831125311 | 70 | 298 | 5.0 | 15.0 | 0.00 | 0.00 | 0.00 | 67 | 8.2 |
| 20260831124311 | 71 | 11 | 8.0 | 17.0 | 0.00 | 0.00 | 0.00 | 63 | 8.0 |
| 20260831123311 | 72 | 254 | 11.0 | 26.0 | 0.00 | 0.00 | 0.00 | 60 | 7.7 |
| 20260831122311 | 72 | 277 | 11.0 | 27.0 | 0.00 | 0.00 | 0.00 | 62 | 7.6 |
| 20260831121311 | 72 | 313 | 10.0 | 24.0 | 0.00 | 0.00 | 0.00 | 63 | 7.6 |
| 20260831120311 | 71 | 260 | 14.0 | 27.0 | 0.00 | 0.00 | 0.00 | 65 | 7.5 |
| 20260831115310 | 70 | 273 | 9.0 | 21.0 | 0.00 | 0.00 | 0.00 | 68 | 7.4 |
| 20260831114311 | 69 | 257 | 14.0 | 25.0 | 0.00 | 0.00 | 0.00 | 69 | 7.4 |
| 20260831113311 | 69 | 291 | 11.0 | 22.0 | 0.00 | 0.00 | 0.00 | 66 | 7.3 |
| 20260831112311 | 69 | 288 | 14.0 | 28.0 | 0.00 | 0.00 | 0.00 | 64 | 7.2 |
| 20260831111311 | 69 | 259 | 11.0 | 22.0 | 0.00 | 0.00 | 0.00 | 65 | 7.2 |
| 20260831110311 | 70 | 272 | 12.0 | 21.0 | 0.00 | 0.00 | 0.00 | 64 | 7.0 |
| 20260831105310 | 69 | 260 | 10.0 | 20.0 | 0.00 | 0.00 | 0.00 | 64 | 6.9 |
| 20260831104311 | 69 | 240 | 9.0 | 20.0 | 0.00 | 0.00 | 0.00 | 66 | 7.0 |
| 20260831103311 | 69 | 246 | 9.0 | 24.0 | 0.00 | 0.00 | 0.00 | 66 | 7.0 |
| 20260831102311 | 69 | 250 | 8.0 | 20.0 | 0.00 | 0.00 | 0.00 | 69 | 6.8 |
| 20260831101311 | 68 | 277 | 9.0 | 22.0 | 0.00 | 0.00 | 0.00 | 67 | 6.7 |
| 20260831100311 | 67 | 196 | 14.0 | 20.0 | 0.00 | 0.00 | 0.00 | 68 | 6.7 |
| 20260831095311 | 67 | 10 | 10.0 | 24.0 | 0.00 | 0.00 | 0.00 | 71 | 6.8 |
| 20260831094311 | 67 | 288 | 10.0 | 17.0 | 0.00 | 0.00 | 0.00 | 75 | 6.8 |
| 20260831093311 | 67 | 242 | 5.0 | 20.0 | 0.00 | 0.00 | 0.00 | 75 | 6.7 |
| 20260831092311 | 66 | 263 | 10.0 | 20.0 | 0.00 | 0.00 | 0.00 | 76 | 6.6 |
| 20260831091312 | 66 | 267 | 6.0 | 17.0 | 0.00 | 0.00 | 0.00 | 75 | 6.6 |
| 20260831085311 | 67 | 294 | 9.0 | 19.0 | 0.00 | 0.00 | 0.00 | 73 | 6.5 |
| 20260831084312 | 67 | 234 | 8.0 | 19.0 | 0.00 | 0.00 | 0.00 | 75 | 6.4 |
| 20260831083311 | 66 | 255 | 5.0 | 14.0 | 0.00 | 0.00 | 0.00 | 79 | 6.3 |
| 20260831082311 | 65 | 206 | 6.0 | 17.0 | 0.00 | 0.00 | 0.00 | 79 | 6.3 |
| 20260831081312 | 65 | 265 | 3.0 | 9.0 | 0.00 | 0.00 | 0.00 | 82 | 6.4 |
| 20260831080311 | 64 | 202 | 6.0 | 13.0 | 0.00 | 0.00 | 0.00 | 82 | 6.5 |
| 20260831075311 | 64 | 251 | 2.0 | 9.0 | 0.00 | 0.00 | 0.00 | 86 | 6.3 |
| 20260831074311 | 63 | 241 | 3.0 | 10.0 | 0.00 | 0.00 | 0.00 | 86 | 6.4 |
| 20260831073311 | 63 | 236 | 3.0 | 11.0 | 0.00 | 0.00 | 0.00 | 86 | 6.5 |
| 20260831072311 | 63 | 276 | 3.0 | 13.0 | 0.00 | 0.00 | 0.00 | 85 | 6.6 |
| 20260831070310 | 63 | 208 | 5.0 | 9.0 | 0.00 | 0.00 | 0.00 | 86 | 6.6 |
| 20260831065311 | 63 | 246 | 4.0 | 11.0 | 0.00 | 0.00 | 0.00 | 85 | 6.8 |
| 20260831064311 | 63 | 250 | 3.0 | 18.0 | 0.00 | 0.00 | 0.00 | 86 | 7.0 |
| 20260831063310 | 63 | 182 | 5.0 | 13.0 | 0.00 | 0.00 | 0.00 | 87 | 6.9 |
| 20260831062310 | 62 | 230 | 4.0 | 14.0 | 0.00 | 0.00 | 0.00 | 87 | 7.0 |
| 20260831061312 | 61 | 195 | 4.0 | 9.0 | 0.00 | 0.00 | 0.00 | 88 | 6.7 |
| 20260831055310 | 61 | 237 | 2.0 | 8.0 | 0.00 | 0.00 | 0.00 | 89 | 6.5 |
| 20260831054310 | 61 | 250 | 2.0 | 13.0 | 0.00 | 0.00 | 0.00 | 89 | 6.6 |
| 20260831053311 | 60 | 218 | 2.0 | 6.0 | 0.00 | 0.00 | 0.00 | 90 | 6.5 |
| 20260831052311 | 60 | 193 | 2.0 | 6.0 | 0.00 | 0.00 | 0.00 | 90 | 6.5 |
| 20260831051311 | 60 | 239 | 2.0 | 9.0 | 0.00 | 0.00 | 0.00 | 90 | 6.6 |
| 20260831050311 | 60 | 209 | 2.0 | 9.0 | 0.00 | 0.00 | 0.00 | 89 | 6.6 |
| 20260831044311 | 60 | 244 | 3.0 | 9.0 | 0.00 | 0.00 | 0.00 | 89 | 6.4 |
| 20260831043312 | 60 | 261 | 2.0 | 8.0 | 0.00 | 0.00 | 0.00 | 89 | 6.2 |
| 20260831042310 | 60 | 240 | 2.0 | 9.0 | 0.00 | 0.00 | 0.00 | 90 | 6.2 |
| 20260831041311 | 60 | 232 | 3.0 | 7.0 | 0.00 | 0.00 | 0.00 | 90 | 6.4 |
| 20260831035311 | 61 | 251 | 2.0 | 7.0 | 0.00 | 0.00 | 0.00 | 89 | 6.2 |
| 20260831034311 | 61 | 275 | 1.0 | 7.0 | 0.00 | 0.00 | 0.00 | 90 | 6.4 |
| 20260831033310 | 61 | 244 | 1.0 | 5.0 | 0.00 | 0.00 | 0.00 | 90 | 6.5 |
| 20260831032311 | 61 | 215 | 2.0 | 8.0 | 0.00 | 0.00 | 0.00 | 90 | 6.6 |
| 20260831031311 | 61 | 235 | 2.0 | 3.0 | 0.00 | 0.00 | 0.00 | 89 | 6.7 |
| 20260831024310 | 61 | 233 | 1.0 | 3.0 | 0.00 | 0.00 | 0.00 | 90 | 6.6 |
| 20260831023311 | 61 | 232 | 1.0 | 5.0 | 0.00 | 0.00 | 0.00 | 90 | 6.5 |
| 20260831022311 | 61 | 216 | 0.0 | 2.0 | 0.00 | 0.00 | 0.00 | 89 | 6.5 |
| 20260831021312 | 61 | 231 | 0.0 | 6.0 | 0.00 | 0.00 | 0.00 | 89 | 6.7 |
| 20260831020311 | 61 | 236 | 1.0 | 3.0 | 0.00 | 0.00 | 0.00 | 89 | 6.9 |
| 20260831015310 | 61 | 228 | 0.0 | 4.0 | 0.00 | 0.00 | 0.00 | 88 | 6.8 |
| 20260831014311 | 61 | 213 | 0.0 | 3.0 | 0.00 | 0.00 | 0.00 | 88 | 6.8 |
| 20260831013311 | 62 | 204 | 0.0 | 5.0 | 0.00 | 0.00 | 0.00 | 88 | 6.8 |
| 20260831012310 | 62 | 204 | 1.0 | 5.0 | 0.00 | 0.00 | 0.00 | 89 | 6.9 |
| 20260831011310 | 62 | 215 | 0.0 | 3.0 | 0.00 | 0.00 | 0.00 | 89 | 7.0 |
| 20260831005311 | 62 | 200 | 0.0 | 4.0 | 0.00 | 0.00 | 0.00 | 88 | 7.1 |
| 20260831004312 | 62 | 224 | 1.0 | 3.0 | 0.00 | 0.00 | 0.00 | 88 | 7.2 |
| 20260831003311 | 62 | 229 | 1.0 | 4.0 | 0.00 | 0.00 | 0.00 | 88 | 7.1 |
| 20260831002311 | 62 | 218 | 1.0 | 3.0 | 0.00 | 0.00 | 0.00 | 88 | 7.4 |
| 20260831000311 | 62 | 218 | 1.0 | 4.0 | 0.00 | 0.00 | 0.00 | 88 | 7.5 |
| 20260830235310 | 62 | 217 | 0.0 | 5.0 | 0.00 | 0.00 | 0.00 | 88 | 7.4 |
| 20260830234310 | 62 | 234 | 2.0 | 4.0 | 0.00 | 0.00 | 0.00 | 88 | 7.7 |
| 20260830233311 | 62 | 236 | 0.0 | 4.0 | 0.00 | 0.00 | 0.00 | 87 | 7.7 |
| 20260830232310 | 62 | 216 | 0.0 | 3.0 | 0.00 | 0.00 | 0.00 | 87 | 7.5 |